Time;durP1;ratioP1;P1;durP2;ratioP2;P2;SDS_P1;SDS_P2;PMS_P1;PMS_P2;Temp;Humidity;BMP_temperature;BMP_pressure;BME280_temperature;BME280_humidity;BME280_pressure;Samples;Min_cycle;Max_cycle;Signal;HPM_P1;HPM_P2
2023/02/19 00:00:02;;;;;;;;;;;;;;;;;;5017602;28;19920;-65
2023/02/19 00:02:30;;;;;;;;;;;;;;;;;;5018518;28;19920;-64
2023/02/19 00:04:58;;;;;;;;;;;;;;;;;;5003968;28;19921;-65
2023/02/19 00:07:23;;;;;;;;;;;;;;;;;;5020721;28;19956;-65
2023/02/19 00:09:51;;;;;;;;;;;;;;;;;;5021881;28;19921;-64
2023/02/19 00:12:16;;;;;;;;;;;;;;;;;;5018641;28;19931;-65
2023/02/19 00:14:41;;;;;;;;;;;;;;;;;;5013615;28;20021;-65
2023/02/19 00:17:07;;;;;;;;;;;;;;;;;;5018536;28;19921;-65
2023/02/19 00:19:32;;;;;;;;;;;;;;;;;;5017180;28;19979;-65
2023/02/19 00:22:00;;;;;;;;;;;;;;;;;;5020193;28;19964;-65
2023/02/19 00:24:28;;;;;;;;;;;;;;;;;;5013734;28;19931;-67
2023/02/19 00:26:56;;;;;;;;;;;;;;;;;;5014524;28;19963;-67
2023/02/19 00:29:24;;;;;;;;;;;;;;;;;;5019834;28;19917;-68
2023/02/19 00:31:49;;;;;;;;;;;;;;;;;;5019558;28;20487;-68
2023/02/19 00:34:15;;;;;;;;;;;;;;;;;;5015028;28;19998;-69
2023/02/19 00:36:40;;;;;;;;;;;;;;;;;;5019798;28;19921;-66
2023/02/19 00:39:06;;;;;;;;;;;;;;;;;;5013490;28;19916;-67
2023/02/19 00:41:31;;;;;;;;;;;;;;;;;;5020800;28;19951;-69
2023/02/19 00:43:56;;;;;;;;;;;;;;;;;;5020671;28;19983;-68
2023/02/19 00:46:22;;;;;;;;;;;;;;;;;;5017725;28;20118;-68
2023/02/19 00:48:47;;;;;;;;;;;;;;;;;;5020178;28;19921;-67
2023/02/19 00:51:12;;;;;;;;;;;;;;;;;;5019343;28;19917;-65
2023/02/19 00:53:37;;;;;;;;;;;;;;;;;;5019155;28;20575;-65
2023/02/19 00:56:03;;;;;;;;;;;;;;;;;;5018354;28;20107;-65
2023/02/19 00:58:28;;;;;;;;;;;;;;;;;;5017988;28;20422;-65
2023/02/19 01:00:56;;;;;;;;;;;;;;;;;;5010684;28;20656;-66
2023/02/19 01:03:24;;;;;;;;;;;;;;;;;;5014543;28;20028;-66
2023/02/19 01:05:50;;;;;;;;;;;;;;;;;;5020712;28;19921;-65
2023/02/19 01:08:17;;;;;;;;;;;;;;;;;;5018812;28;20330;-65
2023/02/19 01:10:45;;;;;;;;;;;;;;;;;;5016609;28;20208;-65
2023/02/19 01:13:14;;;;;;;;;;;;;;;;;;5005174;28;19920;-65
2023/02/19 01:15:39;;;;;;;;;;;;;;;;;;5016897;28;19921;-64
2023/02/19 01:18:04;;;;;;;;;;;;;;;;;;5014157;28;20295;-66
2023/02/19 01:20:30;;;;;;;;;;;;;;;;;;5012829;28;19979;-65
2023/02/19 01:22:55;;;;;;;;;;;;;;;;;;5016474;28;20436;-65
2023/02/19 01:25:23;;;;;;;;;;;;;;;;;;5018389;28;21412;-65
2023/02/19 01:27:53;;;;;;;;;;;;;;;;;;5003524;28;19916;-65
2023/02/19 01:30:22;;;;;;;;;;;;;;;;;;5018920;28;20540;-66
2023/02/19 01:32:47;;;;;;;;;;;;;;;;;;5020218;28;19917;-67
2023/02/19 01:35:12;;;;;;;;;;;;;;;;;;5013202;28;19931;-69
2023/02/19 01:37:38;;;;;;;;;;;;;;;;;;5011320;28;19917;-68
2023/02/19 01:40:04;;;;;;;;;;;;;;;;;;4999591;28;19928;-69
2023/02/19 01:42:32;;;;;;;;;;;;;;;;;;5011046;28;19917;-68
2023/02/19 01:44:58;;;;;;;;;;;;;;;;;;5017165;28;20002;-67
2023/02/19 01:47:25;;;;;;;;;;;;;;;;;;5018085;28;20879;-67
2023/02/19 01:49:51;;;;;;;;;;;;;;;;;;5013870;28;19921;-68
2023/02/19 01:52:16;;;;;;;;;;;;;;;;;;5018507;28;19971;-68
2023/02/19 01:54:42;;;;;;;;;;;;;;;;;;5010368;28;20369;-68
2023/02/19 01:57:07;;;;;;;;;;;;;;;;;;5018572;28;20475;-68
2023/02/19 01:59:32;;;;;;;;;;;;;;;;;;5013005;28;19955;-67
2023/02/19 02:01:58;;;;;;;;;;;;;;;;;;5015493;28;19921;-67
2023/02/19 02:04:26;;;;;;;;;;;;;;;;;;5031073;28;20388;-69
2023/02/19 02:06:52;;;;;;;;;;;;;;;;;;5017200;28;20021;-69
2023/02/19 02:12:01;;;;;;;;;;;;;;;;;;5015218;28;19927;-68
2023/02/19 02:14:27;;;;;;;;;;;;;;;;;;5018546;28;19916;-68
2023/02/19 02:16:52;;;;;;;;;;;;;;;;;;5013931;28;20151;-68
2023/02/19 02:19:17;;;;;;;;;;;;;;;;;;5033350;28;19999;-68
2023/02/19 02:21:43;;;;;;;;;;;;;;;;;;5018292;28;19921;-68
2023/02/19 02:24:11;;;;;;;;;;;;;;;;;;5019479;28;19991;-67
2023/02/19 02:26:37;;;;;;;;;;;;;;;;;;5023735;28;19948;-68
2023/02/19 02:29:02;;;;;;;;;;;;;;;;;;5021258;28;20035;-68
2023/02/19 02:31:30;;;;;;;;;;;;;;;;;;5020901;28;20394;-68
2023/02/19 02:33:55;;;;;;;;;;;;;;;;;;5021406;28;19995;-67
2023/02/19 02:36:21;;;;;;;;;;;;;;;;;;5019374;28;19929;-67
2023/02/19 02:38:47;;;;;;;;;;;;;;;;;;5016081;28;20427;-67
2023/02/19 02:41:13;;;;;;;;;;;;;;;;;;5020455;28;19928;-67
2023/02/19 02:43:40;;;;;;;;;;;;;;;;;;5020904;28;20064;-67
2023/02/19 02:46:06;;;;;;;;;;;;;;;;;;5003289;28;20624;-66
2023/02/19 02:48:31;;;;;;;;;;;;;;;;;;5017031;28;20384;-67
2023/02/19 02:50:56;;;;;;;;;;;;;;;;;;5021656;28;20269;-67
2023/02/19 02:56:06;;;;;;;;;;;;;;;;;;5020938;28;19954;-67
2023/02/19 02:58:31;;;;;;;;;;;;;;;;;;5015197;28;19997;-67
2023/02/19 03:03:41;;;;;;;;;;;;;;;;;;5019056;28;20418;-67
2023/02/19 03:06:11;;;;;;;;;;;;;;;;;;5018581;28;19917;-67
2023/02/19 03:08:37;;;;;;;;;;;;;;;;;;5021381;28;19916;-67
2023/02/19 03:19:18;;;;;;;;;;;;;;;;;;5018874;28;19917;-67
2023/02/19 03:21:45;;;;;;;;;;;;;;;;;;5004422;28;19921;-67
2023/02/19 03:26:55;;;;;;;;;;;;;;;;;;5019868;28;19917;-66
2023/02/19 03:29:24;;;;;;;;;;;;;;;;;;5022571;28;19921;-66
2023/02/19 03:31:50;;;;;;;;;;;;;;;;;;5018908;28;19928;-66
2023/02/19 03:34:15;;;;;;;;;;;;;;;;;;5013483;28;19921;-66
2023/02/19 03:36:43;;;;;;;;;;;;;;;;;;5005410;28;19921;-67
2023/02/19 03:39:08;;;;;;;;;;;;;;;;;;5020008;28;19928;-68
2023/02/19 03:41:33;;;;;;;;;;;;;;;;;;5015840;28;19921;-68
2023/02/19 03:43:59;;;;;;;;;;;;;;;;;;5006440;28;19958;-67
2023/02/19 03:46:24;;;;;;;;;;;;;;;;;;5036074;28;19917;-67
2023/02/19 03:48:52;;;;;;;;;;;;;;;;;;5022947;28;19924;-68
2023/02/19 03:51:23;;;;;;;;;;;;;;;;;;5013856;28;19932;-67
2023/02/19 03:53:48;;;;;;;;;;;;;;;;;;5015822;28;19968;-67
2023/02/19 03:56:13;;;;;;;;;;;;;;;;;;5019570;28;20044;-67
2023/02/19 03:58:41;;;;;;;;;;;;;;;;;;5014585;28;20172;-67
2023/02/19 04:01:06;;;;;;;;;;;;;;;;;;5011877;28;19944;-67
2023/02/19 04:03:31;;;;;;;;;;;;;;;;;;5019835;28;19921;-66
2023/02/19 04:05:56;;;;;;;;;;;;;;;;;;5022294;28;20084;-68
2023/02/19 04:08:24;;;;;;;;;;;;;;;;;;5014037;28;19921;-68
2023/02/19 04:10:57;;;;;;;;;;;;;;;;;;5022648;28;20088;-66
2023/02/19 04:13:22;;;;;;;;;;;;;;;;;;5005458;28;19944;-66
2023/02/19 04:15:48;;;;;;;;;;;;;;;;;;5005949;28;20751;-66
2023/02/19 04:18:13;;;;;;;;;;;;;;;;;;5011995;28;20023;-65
2023/02/19 04:20:38;;;;;;;;;;;;;;;;;;5020083;28;20312;-66
2023/02/19 04:23:03;;;;;;;;;;;;;;;;;;5020676;28;19920;-67
2023/02/19 04:25:29;;;;;;;;;;;;;;;;;;5018567;28;20380;-66
2023/02/19 04:27:54;;;;;;;;;;;;;;;;;;5020411;28;20649;-66
2023/02/19 04:30:19;;;;;;;;;;;;;;;;;;5011086;28;19990;-66
2023/02/19 04:32:45;;;;;;;;;;;;;;;;;;5018469;28;20069;-67
2023/02/19 04:35:10;;;;;;;;;;;;;;;;;;5016485;28;19986;-67
2023/02/19 04:37:40;;;;;;;;;;;;;;;;;;5014455;28;19921;-67
2023/02/19 04:40:06;;;;;;;;;;;;;;;;;;5020512;28;20829;-67
2023/02/19 04:42:31;;;;;;;;;;;;;;;;;;5002594;28;19921;-67
2023/02/19 04:44:59;;;;;;;;;;;;;;;;;;5012213;28;19958;-67
2023/02/19 04:47:24;;;;;;;;;;;;;;;;;;5016896;28;19916;-67
2023/02/19 04:49:50;;;;;;;;;;;;;;;;;;5014820;28;19928;-67
2023/02/19 04:52:15;;;;;;;;;;;;;;;;;;5017009;28;19925;-67
2023/02/19 04:54:42;;;;;;;;;;;;;;;;;;5018882;28;21599;-66
2023/02/19 04:57:10;;;;;;;;;;;;;;;;;;5000054;28;20287;-67
2023/02/19 04:59:36;;;;;;;;;;;;;;;;;;5022495;28;19919;-67
2023/02/19 05:02:01;;;;;;;;;;;;;;;;;;5014669;28;19920;-67
2023/02/19 05:04:29;;;;;;;;;;;;;;;;;;5017540;28;19959;-67
2023/02/19 05:06:54;;;;;;;;;;;;;;;;;;5018845;28;20016;-67
2023/02/19 05:09:22;;;;;;;;;;;;;;;;;;5018939;28;21955;-67
2023/02/19 05:11:50;;;;;;;;;;;;;;;;;;5017472;28;19986;-66
2023/02/19 05:14:16;;;;;;;;;;;;;;;;;;5018461;28;20591;-66
2023/02/19 05:16:41;;;;;;;;;;;;;;;;;;5018694;28;20332;-67
2023/02/19 05:19:09;;;;;;;;;;;;;;;;;;5012632;28;20395;-67
2023/02/19 05:21:34;;;;;;;;;;;;;;;;;;5011780;28;19917;-65
2023/02/19 05:24:02;;;;;;;;;;;;;;;;;;5017716;28;19927;-67
2023/02/19 05:26:30;;;;;;;;;;;;;;;;;;5021185;28;20004;-67
2023/02/19 05:28:57;;;;;;;;;;;;;;;;;;5011849;28;20576;-65
2023/02/19 05:31:25;;;;;;;;;;;;;;;;;;5001953;28;19917;-66
2023/02/19 05:33:51;;;;;;;;;;;;;;;;;;5033008;28;19923;-66
2023/02/19 05:36:16;;;;;;;;;;;;;;;;;;4995911;28;19920;-66
2023/02/19 05:38:42;;;;;;;;;;;;;;;;;;5003745;28;19921;-66
2023/02/19 05:41:07;;;;;;;;;;;;;;;;;;5016942;28;19970;-66
2023/02/19 05:43:32;;;;;;;;;;;;;;;;;;5004563;28;19928;-66
2023/02/19 05:45:58;;;;;;;;;;;;;;;;;;5012972;28;20275;-66
2023/02/19 05:48:26;;;;;;;;;;;;;;;;;;5011434;28;19974;-66
2023/02/19 05:50:54;;;;;;;;;;;;;;;;;;5018463;28;19953;-66
2023/02/19 05:53:22;;;;;;;;;;;;;;;;;;5016686;28;20617;-66
2023/02/19 05:55:47;;;;;;;;;;;;;;;;;;5019677;28;19975;-66
2023/02/19 05:58:12;;;;;;;;;;;;;;;;;;4999667;28;20500;-66
2023/02/19 06:00:37;;;;;;;;;;;;;;;;;;5010413;28;19921;-65
2023/02/19 06:03:03;;;;;;;;;;;;;;;;;;5015578;28;20364;-65
2023/02/19 06:05:28;;;;;;;;;;;;;;;;;;5017151;28;20038;-65
2023/02/19 06:07:53;;;;;;;;;;;;;;;;;;5012346;28;19936;-66
2023/02/19 06:10:18;;;;;;;;;;;;;;;;;;5019034;28;20731;-66
2023/02/19 06:12:44;;;;;;;;;;;;;;;;;;5015093;28;19925;-67
2023/02/19 06:15:09;;;;;;;;;;;;;;;;;;5010413;28;19917;-67
2023/02/19 06:17:34;;;;;;;;;;;;;;;;;;5015716;28;19921;-66
2023/02/19 06:20:05;;;;;;;;;;;;;;;;;;5017649;28;19971;-66
2023/02/19 06:22:30;;;;;;;;;;;;;;;;;;5018972;28;20354;-65
2023/02/19 06:24:55;;;;;;;;;;;;;;;;;;5003042;28;19921;-66
2023/02/19 06:27:21;;;;;;;;;;;;;;;;;;5004091;28;20377;-67
2023/02/19 06:29:46;;;;;;;;;;;;;;;;;;5003431;28;19924;-66
2023/02/19 06:32:11;;;;;;;;;;;;;;;;;;5015991;28;20798;-66
2023/02/19 06:34:39;;;;;;;;;;;;;;;;;;5012611;28;19920;-66
2023/02/19 06:37:04;;;;;;;;;;;;;;;;;;5011258;28;19928;-66
2023/02/19 06:39:29;;;;;;;;;;;;;;;;;;5016508;28;19974;-66
2023/02/19 06:41:55;;;;;;;;;;;;;;;;;;4991065;28;20141;-65
2023/02/19 06:44:20;;;;;;;;;;;;;;;;;;5015796;28;20093;-66
2023/02/19 06:46:45;;;;;;;;;;;;;;;;;;5019704;28;19921;-65
2023/02/19 06:49:11;;;;;;;;;;;;;;;;;;5017480;28;19917;-66
2023/02/19 06:51:39;;;;;;;;;;;;;;;;;;5018625;28;19923;-65
2023/02/19 06:54:07;;;;;;;;;;;;;;;;;;5005044;28;19927;-66
2023/02/19 06:56:32;;;;;;;;;;;;;;;;;;5002489;28;19917;-66
2023/02/19 06:59:03;;;;;;;;;;;;;;;;;;5009976;28;19940;-66
2023/02/19 07:01:28;;;;;;;;;;;;;;;;;;5000050;28;20570;-67
2023/02/19 07:03:56;;;;;;;;;;;;;;;;;;5016850;28;20356;-66
2023/02/19 07:06:24;;;;;;;;;;;;;;;;;;5016110;28;19975;-66
2023/02/19 07:08:50;;;;;;;;;;;;;;;;;;5011739;28;20438;-66
2023/02/19 07:11:23;;;;;;;;;;;;;;;;;;5003488;28;20549;-66
2023/02/19 07:13:48;;;;;;;;;;;;;;;;;;5004914;28;19966;-66
2023/02/19 07:16:16;;;;;;;;;;;;;;;;;;5020313;28;20058;-66
2023/02/19 07:18:42;;;;;;;;;;;;;;;;;;5028932;28;19932;-67
2023/02/19 07:21:10;;;;;;;;;;;;;;;;;;5021299;28;20491;-66
2023/02/19 07:23:35;;;;;;;;;;;;;;;;;;5017890;28;19921;-66
2023/02/19 07:26:00;;;;;;;;;;;;;;;;;;5002855;28;20425;-66
2023/02/19 07:28:26;;;;;;;;;;;;;;;;;;5021524;28;19921;-66
2023/02/19 07:30:51;;;;;;;;;;;;;;;;;;5015257;28;19917;-66
2023/02/19 07:33:16;;;;;;;;;;;;;;;;;;5017661;28;19971;-67
2023/02/19 07:35:41;;;;;;;;;;;;;;;;;;5020272;28;20304;-65
2023/02/19 07:38:12;;;;;;;;;;;;;;;;;;5019078;28;19929;-66
2023/02/19 07:40:40;;;;;;;;;;;;;;;;;;4999831;28;19932;-64
2023/02/19 07:43:05;;;;;;;;;;;;;;;;;;5012704;28;19922;-65
2023/02/19 07:45:33;;;;;;;;;;;;;;;;;;5017731;28;19926;-66
2023/02/19 07:48:00;;;;;;;;;;;;;;;;;;5018008;28;20433;-64
2023/02/19 07:50:28;;;;;;;;;;;;;;;;;;5001657;28;20280;-66
2023/02/19 07:52:54;;;;;;;;;;;;;;;;;;5001519;28;19925;-67
2023/02/19 07:55:19;;;;;;;;;;;;;;;;;;5016937;28;19951;-65
2023/02/19 07:57:44;;;;;;;;;;;;;;;;;;5001682;28;19920;-65
2023/02/19 08:00:12;;;;;;;;;;;;;;;;;;5015950;28;19917;-66
2023/02/19 08:05:29;;;;;;;;;;;;;;;;;;5020321;28;19921;-65
2023/02/19 08:07:54;;;;;;;;;;;;;;;;;;5020210;28;20423;-64
2023/02/19 08:13:21;;;;;;;;;;;;;;;;;;5016573;28;20435;-65
2023/02/19 08:15:46;;;;;;;;;;;;;;;;;;5035543;28;19920;-65
2023/02/19 08:18:11;;;;;;;;;;;;;;;;;;5012036;28;21413;-65
2023/02/19 08:20:37;;;;;;;;;;;;;;;;;;5012216;28;19921;-65
2023/02/19 08:23:02;;;;;;;;;;;;;;;;;;5012703;28;19920;-65
2023/02/19 08:25:27;;;;;;;;;;;;;;;;;;5017718;28;20707;-65
2023/02/19 08:27:52;;;;;;;;;;;;;;;;;;5018441;28;19925;-65
2023/02/19 08:30:20;;;;;;;;;;;;;;;;;;5020064;28;19978;-65
2023/02/19 08:32:45;;;;;;;;;;;;;;;;;;5017769;28;20342;-65
2023/02/19 08:35:16;;;;;;;;;;;;;;;;;;5013420;28;19921;-65
2023/02/19 08:37:41;;;;;;;;;;;;;;;;;;5019694;28;19921;-65
2023/02/19 08:40:11;;;;;;;;;;;;;;;;;;5018427;28;19932;-65
2023/02/19 08:42:37;;;;;;;;;;;;;;;;;;5018728;28;19921;-64
2023/02/19 08:45:02;;;;;;;;;;;;;;;;;;5009237;28;20084;-65
2023/02/19 08:47:27;;;;;;;;;;;;;;;;;;5012093;28;19917;-64
2023/02/19 08:49:52;;;;;;;;;;;;;;;;;;5011338;28;20014;-65
2023/02/19 08:52:20;;;;;;;;;;;;;;;;;;5017278;28;19969;-65
2023/02/19 08:54:46;;;;;;;;;;;;;;;;;;5022034;28;19967;-65
2023/02/19 08:57:13;;;;;;;;;;;;;;;;;;5014914;28;19960;-65
2023/02/19 08:59:41;;;;;;;;;;;;;;;;;;5012973;28;20470;-65
2023/02/19 09:02:06;;;;;;;;;;;;;;;;;;5017575;28;19985;-64
2023/02/19 09:04:32;;;;;;;;;;;;;;;;;;5017302;28;19921;-64
2023/02/19 09:06:59;;;;;;;;;;;;;;;;;;5008172;28;19936;-64
2023/02/19 09:09:25;;;;;;;;;;;;;;;;;;5019440;28;20223;-64
2023/02/19 09:11:50;;;;;;;;;;;;;;;;;;5017201;28;20977;-64
2023/02/19 09:14:15;;;;;;;;;;;;;;;;;;5019700;28;20422;-64
2023/02/19 09:16:40;;;;;;;;;;;;;;;;;;5017149;28;19988;-65
2023/02/19 09:19:11;;;;;;;;;;;;;;;;;;5013549;28;19928;-65
2023/02/19 09:21:39;;;;;;;;;;;;;;;;;;5020625;28;19921;-65
2023/02/19 09:24:04;;;;;;;;;;;;;;;;;;5020048;28;20606;-65
2023/02/19 09:26:29;;;;;;;;;;;;;;;;;;5016916;28;20608;-65
2023/02/19 09:28:55;;;;;;;;;;;;;;;;;;5013471;28;20459;-65
2023/02/19 09:31:23;;;;;;;;;;;;;;;;;;5020155;28;19923;-66
2023/02/19 09:33:53;;;;;;;;;;;;;;;;;;5011629;28;20135;-65
2023/02/19 09:36:24;;;;;;;;;;;;;;;;;;5016010;28;20987;-65
2023/02/19 09:38:52;;;;;;;;;;;;;;;;;;5014126;28;19932;-66
2023/02/19 09:41:20;;;;;;;;;;;;;;;;;;5015679;28;19929;-66
2023/02/19 09:43:47;;;;;;;;;;;;;;;;;;5008316;28;19921;-66
2023/02/19 09:46:12;;;;;;;;;;;;;;;;;;5014442;28;20414;-65
2023/02/19 09:48:40;;;;;;;;;;;;;;;;;;5017489;28;19963;-65
2023/02/19 09:51:05;;;;;;;;;;;;;;;;;;5011617;28;19960;-65
2023/02/19 09:53:31;;;;;;;;;;;;;;;;;;5014646;28;19925;-65
2023/02/19 09:55:58;;;;;;;;;;;;;;;;;;5017326;28;20019;-65
2023/02/19 09:58:28;;;;;;;;;;;;;;;;;;5014123;28;19917;-65
2023/02/19 10:00:53;;;;;;;;;;;;;;;;;;5018564;28;20301;-66
2023/02/19 10:03:19;;;;;;;;;;;;;;;;;;5009916;28;20018;-65
2023/02/19 10:05:44;;;;;;;;;;;;;;;;;;5009284;28;19917;-66
2023/02/19 10:08:12;;;;;;;;;;;;;;;;;;5014033;28;19921;-66
2023/02/19 10:10:37;;;;;;;;;;;;;;;;;;5011106;28;19921;-66
2023/02/19 10:13:05;;;;;;;;;;;;;;;;;;4997319;28;19931;-66
2023/02/19 10:15:32;;;;;;;;;;;;;;;;;;5016326;28;20115;-65
2023/02/19 10:18:00;;;;;;;;;;;;;;;;;;5016938;28;19920;-65
2023/02/19 10:20:26;;;;;;;;;;;;;;;;;;5017359;28;20625;-66
2023/02/19 10:22:52;;;;;;;;;;;;;;;;;;5019713;28;20296;-67
2023/02/19 10:25:19;;;;;;;;;;;;;;;;;;5017275;28;19921;-66
2023/02/19 10:27:48;;;;;;;;;;;;;;;;;;5014436;28;19917;-67
2023/02/19 10:30:16;;;;;;;;;;;;;;;;;;5013957;28;19924;-66
2023/02/19 10:32:41;;;;;;;;;;;;;;;;;;5012833;28;19925;-67
2023/02/19 10:35:08;;;;;;;;;;;;;;;;;;5011210;28;21226;-67
2023/02/19 10:37:36;;;;;;;;;;;;;;;;;;4996016;28;19925;-66
2023/02/19 10:40:05;;;;;;;;;;;;;;;;;;5016571;28;19947;-66
2023/02/19 10:42:32;;;;;;;;;;;;;;;;;;5015582;28;19917;-66
2023/02/19 10:45:00;;;;;;;;;;;;;;;;;;5016124;28;19950;-66
2023/02/19 10:47:26;;;;;;;;;;;;;;;;;;5016781;28;20324;-66
2023/02/19 10:49:51;;;;;;;;;;;;;;;;;;5017809;28;20357;-66
2023/02/19 10:52:19;;;;;;;;;;;;;;;;;;5021823;28;19925;-66
2023/02/19 10:54:46;;;;;;;;;;;;;;;;;;5001730;28;19921;-67
2023/02/19 10:57:15;;;;;;;;;;;;;;;;;;5011786;28;19972;-66
2023/02/19 10:59:45;;;;;;;;;;;;;;;;;;5019320;28;20368;-67
2023/02/19 11:02:13;;;;;;;;;;;;;;;;;;5017681;28;19917;-67
2023/02/19 11:04:38;;;;;;;;;;;;;;;;;;5001980;28;21661;-66
2023/02/19 11:07:03;;;;;;;;;;;;;;;;;;5001566;28;19920;-67
2023/02/19 11:09:29;;;;;;;;;;;;;;;;;;5020560;28;20465;-67
2023/02/19 11:11:54;;;;;;;;;;;;;;;;;;5010852;28;20637;-67
2023/02/19 11:14:20;;;;;;;;;;;;;;;;;;5014297;28;19943;-67
2023/02/19 11:16:45;;;;;;;;;;;;;;;;;;5028944;28;19917;-66
2023/02/19 11:19:10;;;;;;;;;;;;;;;;;;4999368;28;20025;-66
2023/02/19 11:21:36;;;;;;;;;;;;;;;;;;5021846;28;20003;-67
2023/02/19 11:24:02;;;;;;;;;;;;;;;;;;5015590;28;19921;-67
2023/02/19 11:26:28;;;;;;;;;;;;;;;;;;5013983;28;20925;-67
2023/02/19 11:28:55;;;;;;;;;;;;;;;;;;5011142;28;20311;-67
2023/02/19 11:31:23;;;;;;;;;;;;;;;;;;5001103;28;20336;-67
2023/02/19 11:33:48;;;;;;;;;;;;;;;;;;5021274;28;19920;-67
2023/02/19 11:36:16;;;;;;;;;;;;;;;;;;5019566;28;19928;-66
2023/02/19 11:38:42;;;;;;;;;;;;;;;;;;5017431;28;19917;-66
2023/02/19 11:41:09;;;;;;;;;;;;;;;;;;5019005;28;19928;-67
2023/02/19 11:43:35;;;;;;;;;;;;;;;;;;5001616;28;19970;-67
2023/02/19 11:46:00;;;;;;;;;;;;;;;;;;5017137;28;19916;-67
2023/02/19 11:48:25;;;;;;;;;;;;;;;;;;5019437;28;19939;-67
2023/02/19 11:50:51;;;;;;;;;;;;;;;;;;5008715;28;19924;-67
2023/02/19 11:53:19;;;;;;;;;;;;;;;;;;5004473;28;19927;-66
2023/02/19 11:55:44;;;;;;;;;;;;;;;;;;5016306;28;19920;-66
2023/02/19 11:58:12;;;;;;;;;;;;;;;;;;5009117;28;19917;-67
2023/02/19 12:00:40;;;;;;;;;;;;;;;;;;5017527;28;19917;-67
2023/02/19 12:03:07;;;;;;;;;;;;;;;;;;5016721;28;20251;-66
2023/02/19 12:05:33;;;;;;;;;;;;;;;;;;5015287;28;20513;-66
2023/02/19 12:07:58;;;;;;;;;;;;;;;;;;5012940;28;19920;-67
2023/02/19 12:10:24;;;;;;;;;;;;;;;;;;5018352;28;19932;-67
2023/02/19 12:12:50;;;;;;;;;;;;;;;;;;5011379;28;19967;-66
2023/02/19 12:15:18;;;;;;;;;;;;;;;;;;4998545;28;20392;-67
2023/02/19 12:17:44;;;;;;;;;;;;;;;;;;5012273;28;19921;-66
2023/02/19 12:20:09;;;;;;;;;;;;;;;;;;5017240;28;19927;-66
2023/02/19 12:22:37;;;;;;;;;;;;;;;;;;5019498;28;19972;-66
2023/02/19 12:25:03;;;;;;;;;;;;;;;;;;5018760;28;20066;-67
2023/02/19 12:27:28;;;;;;;;;;;;;;;;;;5016229;28;20012;-67
2023/02/19 12:29:56;;;;;;;;;;;;;;;;;;5016362;28;20177;-68
2023/02/19 12:32:24;;;;;;;;;;;;;;;;;;5014742;28;20015;-67
2023/02/19 12:34:52;;;;;;;;;;;;;;;;;;5012900;28;19917;-68
2023/02/19 12:37:17;;;;;;;;;;;;;;;;;;5000332;28;19920;-68
2023/02/19 12:39:42;;;;;;;;;;;;;;;;;;5011963;28;19928;-68
2023/02/19 12:42:10;;;;;;;;;;;;;;;;;;5010939;28;19925;-67
2023/02/19 12:44:35;;;;;;;;;;;;;;;;;;5020085;28;19917;-68
2023/02/19 12:47:01;;;;;;;;;;;;;;;;;;5028469;28;20265;-69
2023/02/19 12:49:26;;;;;;;;;;;;;;;;;;5010276;28;19921;-66
2023/02/19 12:51:54;;;;;;;;;;;;;;;;;;5013814;28;19978;-67
2023/02/19 12:54:19;;;;;;;;;;;;;;;;;;5007157;28;19973;-68
2023/02/19 12:56:47;;;;;;;;;;;;;;;;;;5008899;28;19921;-67
2023/02/19 12:59:12;;;;;;;;;;;;;;;;;;5000700;28;19921;-67
2023/02/19 13:01:37;;;;;;;;;;;;;;;;;;5004424;28;19936;-67
2023/02/19 13:04:03;;;;;;;;;;;;;;;;;;5008464;28;20525;-68
2023/02/19 13:06:28;;;;;;;;;;;;;;;;;;5015081;28;20354;-71
2023/02/19 13:08:57;;;;;;;;;;;;;;;;;;5016944;28;19959;-68
2023/02/19 13:11:22;;;;;;;;;;;;;;;;;;5010962;28;21709;-68
2023/02/19 13:13:50;;;;;;;;;;;;;;;;;;5015001;28;20189;-68
2023/02/19 13:16:17;;;;;;;;;;;;;;;;;;4990022;28;20007;-68
2023/02/19 13:18:45;;;;;;;;;;;;;;;;;;5022021;28;19923;-68
2023/02/19 13:23:57;;;;;;;;;;;;;;;;;;5005783;28;19999;-68
2023/02/19 13:24:02;;;;;;;;;;;;;;;;;;5019544;28;20627;-68
2023/02/19 13:26:28;;;;;;;;;;;;;;;;;;5007363;28;19917;-68
2023/02/19 13:28:53;;;;;;;;;;;;;;;;;;5007913;28;19917;-68
2023/02/19 13:31:18;;;;;;;;;;;;;;;;;;5010600;28;20372;-68
2023/02/19 13:33:46;;;;;;;;;;;;;;;;;;5012913;28;19927;-68
2023/02/19 13:36:14;;;;;;;;;;;;;;;;;;5017059;28;20576;-68
2023/02/19 13:38:40;;;;;;;;;;;;;;;;;;5016535;28;19917;-68
2023/02/19 13:41:07;;;;;;;;;;;;;;;;;;5004499;28;21858;-69
2023/02/19 13:43:37;;;;;;;;;;;;;;;;;;5009531;28;20011;-68
2023/02/19 13:46:05;;;;;;;;;;;;;;;;;;5012589;28;19916;-69
2023/02/19 13:48:30;;;;;;;;;;;;;;;;;;5011431;28;19921;-68
2023/02/19 13:50:58;;;;;;;;;;;;;;;;;;5015672;28;19997;-68
2023/02/19 13:53:26;;;;;;;;;;;;;;;;;;5016095;28;19990;-68
2023/02/19 13:55:51;;;;;;;;;;;;;;;;;;5012541;28;19921;-68
2023/02/19 13:58:17;;;;;;;;;;;;;;;;;;5002744;28;20023;-68
2023/02/19 14:00:44;;;;;;;;;;;;;;;;;;5015802;28;20031;-68
2023/02/19 14:03:12;;;;;;;;;;;;;;;;;;5018717;28;19951;-68
2023/02/19 14:05:43;;;;;;;;;;;;;;;;;;5014454;28;19971;-69
2023/02/19 14:08:08;;;;;;;;;;;;;;;;;;5001531;28;20015;-68
2023/02/19 14:10:33;;;;;;;;;;;;;;;;;;5005409;28;20788;-68
2023/02/19 14:12:59;;;;;;;;;;;;;;;;;;5014226;28;19931;-67
2023/02/19 14:15:26;;;;;;;;;;;;;;;;;;5018196;28;20199;-67
2023/02/19 14:17:54;;;;;;;;;;;;;;;;;;5026565;28;20052;-67
2023/02/19 14:20:20;;;;;;;;;;;;;;;;;;5017654;28;19959;-68
2023/02/19 14:25:10;;;;;;;;;;;;;;;;;;5015987;28;20340;-68
2023/02/19 14:27:38;;;;;;;;;;;;;;;;;;5018419;28;20356;-68
2023/02/19 14:30:03;;;;;;;;;;;;;;;;;;5016433;28;19917;-67
2023/02/19 14:32:29;;;;;;;;;;;;;;;;;;5010015;28;20174;-68
2023/02/19 14:34:57;;;;;;;;;;;;;;;;;;5013208;28;20585;-68
2023/02/19 14:37:27;;;;;;;;;;;;;;;;;;4997366;28;20456;-70
2023/02/19 14:39:55;;;;;;;;;;;;;;;;;;5015003;28;19917;-68
2023/02/19 14:42:20;;;;;;;;;;;;;;;;;;4977800;28;19963;-69
2023/02/19 14:44:46;;;;;;;;;;;;;;;;;;5004771;28;19939;-68
2023/02/19 14:47:11;;;;;;;;;;;;;;;;;;5011321;28;20585;-70
2023/02/19 14:49:41;;;;;;;;;;;;;;;;;;5017942;28;20449;-69
2023/02/19 14:52:06;;;;;;;;;;;;;;;;;;5000512;28;19921;-68
2023/02/19 14:54:31;;;;;;;;;;;;;;;;;;5001198;28;19920;-69
2023/02/19 14:56:59;;;;;;;;;;;;;;;;;;5004034;28;19928;-68
2023/02/19 14:59:24;;;;;;;;;;;;;;;;;;5013808;28;19921;-68
2023/02/19 15:01:50;;;;;;;;;;;;;;;;;;5006475;28;19923;-68
2023/02/19 15:04:15;;;;;;;;;;;;;;;;;;5015008;28;20491;-68
2023/02/19 15:06:46;;;;;;;;;;;;;;;;;;5024115;28;19927;-68
2023/02/19 15:09:13;;;;;;;;;;;;;;;;;;5001222;28;20485;-68
2023/02/19 15:11:39;;;;;;;;;;;;;;;;;;5001723;28;19932;-68
2023/02/19 15:14:04;;;;;;;;;;;;;;;;;;5011712;28;19921;-68
2023/02/19 15:16:30;;;;;;;;;;;;;;;;;;5006018;28;20528;-67
2023/02/19 15:18:58;;;;;;;;;;;;;;;;;;5000858;28;19926;-67
2023/02/19 15:21:23;;;;;;;;;;;;;;;;;;5017507;28;19956;-68
2023/02/19 15:23:51;;;;;;;;;;;;;;;;;;5020206;28;20029;-66
2023/02/19 15:26:16;;;;;;;;;;;;;;;;;;5011672;28;19924;-67
2023/02/19 15:28:44;;;;;;;;;;;;;;;;;;5022194;28;19921;-69
2023/02/19 15:31:09;;;;;;;;;;;;;;;;;;5024889;28;21133;-68
2023/02/19 15:33:35;;;;;;;;;;;;;;;;;;5012787;28;19932;-67
2023/02/19 15:36:00;;;;;;;;;;;;;;;;;;5006406;28;19932;-67
2023/02/19 15:38:25;;;;;;;;;;;;;;;;;;5023734;28;20387;-67
2023/02/19 15:40:50;;;;;;;;;;;;;;;;;;5014843;28;20473;-67
2023/02/19 15:43:16;;;;;;;;;;;;;;;;;;5019316;28;20054;-67
2023/02/19 15:45:44;;;;;;;;;;;;;;;;;;5022085;28;20410;-71
2023/02/19 15:48:09;;;;;;;;;;;;;;;;;;5020202;28;19963;-68
2023/02/19 15:50:34;;;;;;;;;;;;;;;;;;5019977;28;20516;-67
2023/02/19 15:53:00;;;;;;;;;;;;;;;;;;5018171;28;20024;-68
2023/02/19 15:55:25;;;;;;;;;;;;;;;;;;5004832;28;20015;-68
2023/02/19 15:57:50;;;;;;;;;;;;;;;;;;5019430;28;19956;-68
2023/02/19 16:00:18;;;;;;;;;;;;;;;;;;5019628;28;19963;-69
2023/02/19 16:02:43;;;;;;;;;;;;;;;;;;5010367;28;19980;-67
2023/02/19 16:05:11;;;;;;;;;;;;;;;;;;5019950;28;19947;-69
2023/02/19 16:07:39;;;;;;;;;;;;;;;;;;5005358;28;19940;-68
2023/02/19 16:10:07;;;;;;;;;;;;;;;;;;5017090;28;19921;-67
2023/02/19 16:12:35;;;;;;;;;;;;;;;;;;5029612;28;19925;-66
2023/02/19 16:15:01;;;;;;;;;;;;;;;;;;5012222;28;20405;-70
2023/02/19 16:17:27;;;;;;;;;;;;;;;;;;5012921;28;20514;-69
2023/02/19 16:19:57;;;;;;;;;;;;;;;;;;5012976;28;19931;-68
2023/02/19 16:22:25;;;;;;;;;;;;;;;;;;5017270;28;19943;-68
2023/02/19 16:24:53;;;;;;;;;;;;;;;;;;5013601;28;20031;-69
2023/02/19 16:27:18;;;;;;;;;;;;;;;;;;5013393;28;19921;-69
2023/02/19 16:29:43;;;;;;;;;;;;;;;;;;5018048;28;20075;-67
2023/02/19 16:32:11;;;;;;;;;;;;;;;;;;5018543;28;19999;-67
2023/02/19 16:34:36;;;;;;;;;;;;;;;;;;5020639;28;19921;-67
2023/02/19 16:37:02;;;;;;;;;;;;;;;;;;5018933;28;19917;-68
2023/02/19 16:39:29;;;;;;;;;;;;;;;;;;5017701;28;20439;-69
2023/02/19 16:41:55;;;;;;;;;;;;;;;;;;5011637;28;20790;-69
2023/02/19 16:44:20;;;;;;;;;;;;;;;;;;5033589;28;19921;-69
2023/02/19 16:46:45;;;;;;;;;;;;;;;;;;5011707;28;20182;-69
2023/02/19 16:49:11;;;;;;;;;;;;;;;;;;5017863;28;20115;-69
2023/02/19 16:51:36;;;;;;;;;;;;;;;;;;5012509;28;21492;-69
2023/02/19 16:54:01;;;;;;;;;;;;;;;;;;4999956;28;19921;-69
2023/02/19 16:56:29;;;;;;;;;;;;;;;;;;5018395;28;19924;-69
2023/02/19 16:58:55;;;;;;;;;;;;;;;;;;5020402;28;19920;-69
2023/02/19 17:01:20;;;;;;;;;;;;;;;;;;5011284;28;20358;-69
2023/02/19 17:03:46;;;;;;;;;;;;;;;;;;5017570;28;19921;-69
2023/02/19 17:06:11;;;;;;;;;;;;;;;;;;4999923;28;19920;-68